sensor_id;sensor_type;location;lat;lon;timestamp;P1;durP1;ratioP1;P2;durP2;ratioP2
28836;SDS011;50669;50.982;11.022;2023-04-06T00:02:18;1.38;;;1.00;;
28836;SDS011;50669;50.982;11.022;2023-04-06T00:04:44;0.88;;;0.80;;
28836;SDS011;50669;50.982;11.022;2023-04-06T00:07:10;1.02;;;0.93;;
28836;SDS011;50669;50.982;11.022;2023-04-06T00:09:35;1.15;;;0.80;;
28836;SDS011;50669;50.982;11.022;2023-04-06T00:12:01;1.02;;;0.70;;
28836;SDS011;50669;50.982;11.022;2023-04-06T00:14:27;1.30;;;0.90;;
28836;SDS011;50669;50.982;11.022;2023-04-06T00:16:52;1.05;;;0.90;;
28836;SDS011;50669;50.982;11.022;2023-04-06T00:19:18;1.40;;;1.25;;
28836;SDS011;50669;50.982;11.022;2023-04-06T00:21:46;1.08;;;0.98;;
28836;SDS011;50669;50.982;11.022;2023-04-06T00:24:12;1.30;;;0.90;;
28836;SDS011;50669;50.982;11.022;2023-04-06T00:26:37;0.88;;;0.85;;
28836;SDS011;50669;50.982;11.022;2023-04-06T00:29:03;1.10;;;0.90;;
28836;SDS011;50669;50.982;11.022;2023-04-06T00:31:28;0.98;;;0.80;;
28836;SDS011;50669;50.982;11.022;2023-04-06T00:33:54;0.90;;;0.77;;
28836;SDS011;50669;50.982;11.022;2023-04-06T00:36:20;1.10;;;0.80;;
28836;SDS011;50669;50.982;11.022;2023-04-06T00:38:48;0.93;;;0.80;;
28836;SDS011;50669;50.982;11.022;2023-04-06T00:41:14;1.27;;;0.90;;
28836;SDS011;50669;50.982;11.022;2023-04-06T00:43:39;0.77;;;0.70;;
28836;SDS011;50669;50.982;11.022;2023-04-06T00:46:07;1.02;;;0.93;;
28836;SDS011;50669;50.982;11.022;2023-04-06T00:48:33;1.65;;;0.90;;
28836;SDS011;50669;50.982;11.022;2023-04-06T00:50:58;1.55;;;1.10;;
28836;SDS011;50669;50.982;11.022;2023-04-06T00:53:25;1.67;;;1.10;;
28836;SDS011;50669;50.982;11.022;2023-04-06T00:55:53;1.23;;;0.80;;
28836;SDS011;50669;50.982;11.022;2023-04-06T00:58:19;0.90;;;0.80;;
28836;SDS011;50669;50.982;11.022;2023-04-06T01:00:45;1.20;;;1.08;;
28836;SDS011;50669;50.982;11.022;2023-04-06T01:03:11;1.20;;;1.00;;
28836;SDS011;50669;50.982;11.022;2023-04-06T01:05:36;1.08;;;0.90;;
28836;SDS011;50669;50.982;11.022;2023-04-06T01:08:05;1.23;;;0.90;;
28836;SDS011;50669;50.982;11.022;2023-04-06T01:10:36;1.00;;;0.90;;
28836;SDS011;50669;50.982;11.022;2023-04-06T01:13:04;1.10;;;1.00;;
28836;SDS011;50669;50.982;11.022;2023-04-06T01:15:30;1.88;;;0.95;;
28836;SDS011;50669;50.982;11.022;2023-04-06T01:17:58;1.42;;;0.88;;
28836;SDS011;50669;50.982;11.022;2023-04-06T01:20:24;1.00;;;0.88;;
28836;SDS011;50669;50.982;11.022;2023-04-06T01:22:50;1.23;;;0.90;;
28836;SDS011;50669;50.982;11.022;2023-04-06T01:25:15;1.60;;;1.00;;
28836;SDS011;50669;50.982;11.022;2023-04-06T01:27:41;1.90;;;1.30;;
28836;SDS011;50669;50.982;11.022;2023-04-06T01:30:08;1.38;;;1.27;;
28836;SDS011;50669;50.982;11.022;2023-04-06T01:32:36;2.35;;;1.33;;
28836;SDS011;50669;50.982;11.022;2023-04-06T01:35:05;1.55;;;1.02;;
28836;SDS011;50669;50.982;11.022;2023-04-06T01:37:33;2.13;;;1.02;;
28836;SDS011;50669;50.982;11.022;2023-04-06T01:39:59;1.35;;;0.88;;
28836;SDS011;50669;50.982;11.022;2023-04-06T01:42:25;0.95;;;0.85;;
28836;SDS011;50669;50.982;11.022;2023-04-06T01:44:51;1.20;;;1.08;;
28836;SDS011;50669;50.982;11.022;2023-04-06T01:47:17;1.35;;;0.90;;
28836;SDS011;50669;50.982;11.022;2023-04-06T01:49:45;1.00;;;0.90;;
28836;SDS011;50669;50.982;11.022;2023-04-06T01:52:10;0.90;;;0.70;;
28836;SDS011;50669;50.982;11.022;2023-04-06T01:54:41;1.05;;;0.95;;
28836;SDS011;50669;50.982;11.022;2023-04-06T01:57:06;1.23;;;1.00;;
28836;SDS011;50669;50.982;11.022;2023-04-06T01:59:32;1.70;;;1.20;;
28836;SDS011;50669;50.982;11.022;2023-04-06T02:01:58;1.48;;;1.10;;
28836;SDS011;50669;50.982;11.022;2023-04-06T02:04:26;1.10;;;1.00;;
28836;SDS011;50669;50.982;11.022;2023-04-06T02:06:56;1.27;;;1.17;;
28836;SDS011;50669;50.982;11.022;2023-04-06T02:09:22;1.55;;;0.90;;
28836;SDS011;50669;50.982;11.022;2023-04-06T02:11:50;1.23;;;1.00;;
28836;SDS011;50669;50.982;11.022;2023-04-06T02:14:16;1.05;;;0.90;;
28836;SDS011;50669;50.982;11.022;2023-04-06T02:16:41;0.80;;;0.80;;
28836;SDS011;50669;50.982;11.022;2023-04-06T02:19:09;1.38;;;1.00;;
28836;SDS011;50669;50.982;11.022;2023-04-06T02:21:37;0.80;;;0.80;;
28836;SDS011;50669;50.982;11.022;2023-04-06T02:24:06;1.83;;;1.10;;
28836;SDS011;50669;50.982;11.022;2023-04-06T02:26:31;1.40;;;1.10;;
28836;SDS011;50669;50.982;11.022;2023-04-06T02:28:57;0.90;;;0.80;;
28836;SDS011;50669;50.982;11.022;2023-04-06T02:31:23;1.08;;;0.93;;
28836;SDS011;50669;50.982;11.022;2023-04-06T02:33:51;1.73;;;1.17;;
28836;SDS011;50669;50.982;11.022;2023-04-06T02:36:16;1.40;;;1.05;;
28836;SDS011;50669;50.982;11.022;2023-04-06T02:38:42;1.00;;;0.88;;
28836;SDS011;50669;50.982;11.022;2023-04-06T02:41:08;1.08;;;0.90;;
28836;SDS011;50669;50.982;11.022;2023-04-06T02:43:34;1.02;;;0.82;;
28836;SDS011;50669;50.982;11.022;2023-04-06T02:46:00;1.13;;;1.00;;
28836;SDS011;50669;50.982;11.022;2023-04-06T02:48:28;1.38;;;1.10;;
28836;SDS011;50669;50.982;11.022;2023-04-06T02:50:56;1.27;;;1.17;;
28836;SDS011;50669;50.982;11.022;2023-04-06T02:53:22;1.38;;;1.13;;
28836;SDS011;50669;50.982;11.022;2023-04-06T02:55:47;1.27;;;1.17;;
28836;SDS011;50669;50.982;11.022;2023-04-06T02:58:13;1.08;;;0.93;;
28836;SDS011;50669;50.982;11.022;2023-04-06T03:00:41;1.48;;;1.20;;
28836;SDS011;50669;50.982;11.022;2023-04-06T03:03:07;1.45;;;1.20;;
28836;SDS011;50669;50.982;11.022;2023-04-06T03:05:33;1.50;;;1.10;;
28836;SDS011;50669;50.982;11.022;2023-04-06T03:07:58;1.20;;;1.10;;
28836;SDS011;50669;50.982;11.022;2023-04-06T03:10:24;1.20;;;1.00;;
28836;SDS011;50669;50.982;11.022;2023-04-06T03:12:50;1.30;;;1.00;;
28836;SDS011;50669;50.982;11.022;2023-04-06T03:15:17;1.40;;;1.10;;
28836;SDS011;50669;50.982;11.022;2023-04-06T03:17:43;1.20;;;1.10;;
28836;SDS011;50669;50.982;11.022;2023-04-06T03:20:09;1.73;;;1.13;;
28836;SDS011;50669;50.982;11.022;2023-04-06T03:22:37;1.70;;;1.10;;
28836;SDS011;50669;50.982;11.022;2023-04-06T03:25:05;1.55;;;1.33;;
28836;SDS011;50669;50.982;11.022;2023-04-06T03:27:31;1.20;;;1.10;;
28836;SDS011;50669;50.982;11.022;2023-04-06T03:29:57;0.90;;;0.90;;
28836;SDS011;50669;50.982;11.022;2023-04-06T03:32:23;1.15;;;0.88;;
28836;SDS011;50669;50.982;11.022;2023-04-06T03:34:49;1.15;;;1.00;;
28836;SDS011;50669;50.982;11.022;2023-04-06T03:37:17;1.38;;;1.00;;
28836;SDS011;50669;50.982;11.022;2023-04-06T03:39:42;0.93;;;0.80;;
28836;SDS011;50669;50.982;11.022;2023-04-06T03:42:10;1.27;;;1.10;;
28836;SDS011;50669;50.982;11.022;2023-04-06T03:44:38;1.58;;;1.08;;
28836;SDS011;50669;50.982;11.022;2023-04-06T03:47:06;1.38;;;1.02;;
28836;SDS011;50669;50.982;11.022;2023-04-06T03:49:32;1.23;;;1.10;;
28836;SDS011;50669;50.982;11.022;2023-04-06T03:52:00;1.55;;;1.10;;
28836;SDS011;50669;50.982;11.022;2023-04-06T03:54:26;1.45;;;1.00;;
28836;SDS011;50669;50.982;11.022;2023-04-06T03:56:54;2.25;;;0.85;;
28836;SDS011;50669;50.982;11.022;2023-04-06T03:59:20;0.85;;;0.75;;
28836;SDS011;50669;50.982;11.022;2023-04-06T04:01:46;1.30;;;1.13;;
28836;SDS011;50669;50.982;11.022;2023-04-06T04:04:11;1.48;;;1.38;;
28836;SDS011;50669;50.982;11.022;2023-04-06T04:06:37;1.30;;;0.95;;
28836;SDS011;50669;50.982;11.022;2023-04-06T04:09:05;1.45;;;1.10;;
28836;SDS011;50669;50.982;11.022;2023-04-06T04:11:31;1.27;;;1.00;;
28836;SDS011;50669;50.982;11.022;2023-04-06T04:13:59;1.17;;;1.00;;
28836;SDS011;50669;50.982;11.022;2023-04-06T04:16:24;1.25;;;1.02;;
28836;SDS011;50669;50.982;11.022;2023-04-06T04:18:50;1.88;;;1.45;;
28836;SDS011;50669;50.982;11.022;2023-04-06T04:21:16;2.35;;;1.02;;
28836;SDS011;50669;50.982;11.022;2023-04-06T04:23:41;1.65;;;1.23;;
28836;SDS011;50669;50.982;11.022;2023-04-06T04:26:07;1.40;;;1.10;;
28836;SDS011;50669;50.982;11.022;2023-04-06T04:28:33;1.00;;;0.82;;
28836;SDS011;50669;50.982;11.022;2023-04-06T04:30:59;1.13;;;0.90;;
28836;SDS011;50669;50.982;11.022;2023-04-06T04:33:24;1.45;;;1.10;;
28836;SDS011;50669;50.982;11.022;2023-04-06T04:35:50;1.27;;;1.00;;
28836;SDS011;50669;50.982;11.022;2023-04-06T04:38:16;1.73;;;0.98;;
28836;SDS011;50669;50.982;11.022;2023-04-06T04:40:41;1.42;;;1.17;;
28836;SDS011;50669;50.982;11.022;2023-04-06T04:43:07;2.15;;;1.20;;
28836;SDS011;50669;50.982;11.022;2023-04-06T04:45:33;1.88;;;1.10;;
28836;SDS011;50669;50.982;11.022;2023-04-06T04:48:01;1.25;;;1.10;;
28836;SDS011;50669;50.982;11.022;2023-04-06T04:50:26;1.58;;;1.20;;
28836;SDS011;50669;50.982;11.022;2023-04-06T04:52:54;1.50;;;1.20;;
28836;SDS011;50669;50.982;11.022;2023-04-06T04:55:20;1.45;;;0.90;;
28836;SDS011;50669;50.982;11.022;2023-04-06T04:57:45;1.45;;;1.15;;
28836;SDS011;50669;50.982;11.022;2023-04-06T05:00:13;1.45;;;1.05;;
28836;SDS011;50669;50.982;11.022;2023-04-06T05:02:39;1.90;;;1.33;;
28836;SDS011;50669;50.982;11.022;2023-04-06T05:05:05;1.17;;;0.95;;
28836;SDS011;50669;50.982;11.022;2023-04-06T05:07:31;2.03;;;1.40;;
28836;SDS011;50669;50.982;11.022;2023-04-06T05:10:00;1.40;;;1.10;;
28836;SDS011;50669;50.982;11.022;2023-04-06T05:12:29;1.70;;;1.23;;
28836;SDS011;50669;50.982;11.022;2023-04-06T05:14:57;1.33;;;1.23;;
28836;SDS011;50669;50.982;11.022;2023-04-06T05:17:22;1.27;;;0.93;;
28836;SDS011;50669;50.982;11.022;2023-04-06T05:19:53;1.45;;;1.33;;
28836;SDS011;50669;50.982;11.022;2023-04-06T05:22:19;1.27;;;1.15;;
28836;SDS011;50669;50.982;11.022;2023-04-06T05:24:45;1.83;;;1.00;;
28836;SDS011;50669;50.982;11.022;2023-04-06T05:27:11;1.05;;;0.95;;
28836;SDS011;50669;50.982;11.022;2023-04-06T05:29:36;1.52;;;1.25;;
28836;SDS011;50669;50.982;11.022;2023-04-06T05:32:02;2.42;;;1.38;;
28836;SDS011;50669;50.982;11.022;2023-04-06T05:34:28;1.55;;;1.10;;
28836;SDS011;50669;50.982;11.022;2023-04-06T05:36:54;1.50;;;1.10;;
28836;SDS011;50669;50.982;11.022;2023-04-06T05:39:19;1.30;;;1.13;;
28836;SDS011;50669;50.982;11.022;2023-04-06T05:41:45;1.17;;;1.00;;
28836;SDS011;50669;50.982;11.022;2023-04-06T05:44:13;2.03;;;1.23;;
28836;SDS011;50669;50.982;11.022;2023-04-06T05:46:39;1.30;;;1.10;;
28836;SDS011;50669;50.982;11.022;2023-04-06T05:49:09;1.35;;;1.20;;
28836;SDS011;50669;50.982;11.022;2023-04-06T05:51:35;1.20;;;0.90;;
28836;SDS011;50669;50.982;11.022;2023-04-06T05:54:00;1.35;;;1.20;;
28836;SDS011;50669;50.982;11.022;2023-04-06T05:56:26;1.20;;;0.90;;
28836;SDS011;50669;50.982;11.022;2023-04-06T05:58:52;1.60;;;1.02;;
28836;SDS011;50669;50.982;11.022;2023-04-06T06:01:22;1.52;;;1.10;;
28836;SDS011;50669;50.982;11.022;2023-04-06T06:03:48;1.63;;;0.98;;
28836;SDS011;50669;50.982;11.022;2023-04-06T06:06:16;1.67;;;1.30;;
28836;SDS011;50669;50.982;11.022;2023-04-06T06:08:41;1.38;;;1.13;;
28836;SDS011;50669;50.982;11.022;2023-04-06T06:11:10;1.30;;;1.15;;
28836;SDS011;50669;50.982;11.022;2023-04-06T06:13:38;2.13;;;1.20;;
28836;SDS011;50669;50.982;11.022;2023-04-06T06:16:06;1.20;;;1.00;;
28836;SDS011;50669;50.982;11.022;2023-04-06T06:18:32;1.30;;;1.00;;
28836;SDS011;50669;50.982;11.022;2023-04-06T06:20:57;2.40;;;1.20;;
28836;SDS011;50669;50.982;11.022;2023-04-06T06:23:23;2.08;;;1.23;;
28836;SDS011;50669;50.982;11.022;2023-04-06T06:25:49;1.67;;;1.25;;
28836;SDS011;50669;50.982;11.022;2023-04-06T06:28:15;2.03;;;1.42;;
28836;SDS011;50669;50.982;11.022;2023-04-06T06:30:40;1.45;;;1.20;;
28836;SDS011;50669;50.982;11.022;2023-04-06T06:33:08;1.63;;;1.08;;
28836;SDS011;50669;50.982;11.022;2023-04-06T06:35:34;1.52;;;1.23;;
28836;SDS011;50669;50.982;11.022;2023-04-06T06:38:00;1.50;;;1.20;;
28836;SDS011;50669;50.982;11.022;2023-04-06T06:40:25;1.65;;;1.23;;
28836;SDS011;50669;50.982;11.022;2023-04-06T06:42:51;1.20;;;1.10;;
28836;SDS011;50669;50.982;11.022;2023-04-06T06:45:17;1.75;;;1.20;;
28836;SDS011;50669;50.982;11.022;2023-04-06T06:47:43;1.50;;;1.02;;
28836;SDS011;50669;50.982;11.022;2023-04-06T06:50:11;1.92;;;1.20;;
28836;SDS011;50669;50.982;11.022;2023-04-06T06:52:37;1.48;;;1.23;;
28836;SDS011;50669;50.982;11.022;2023-04-06T06:55:05;2.70;;;1.30;;
28836;SDS011;50669;50.982;11.022;2023-04-06T06:57:31;1.00;;;0.90;;
28836;SDS011;50669;50.982;11.022;2023-04-06T06:59:57;1.90;;;1.45;;
28836;SDS011;50669;50.982;11.022;2023-04-06T07:02:24;2.65;;;1.50;;
28836;SDS011;50669;50.982;11.022;2023-04-06T07:04:50;1.77;;;1.25;;
28836;SDS011;50669;50.982;11.022;2023-04-06T07:07:18;2.10;;;1.40;;
28836;SDS011;50669;50.982;11.022;2023-04-06T07:09:44;2.63;;;1.55;;
28836;SDS011;50669;50.982;11.022;2023-04-06T07:12:11;2.40;;;1.50;;
28836;SDS011;50669;50.982;11.022;2023-04-06T07:14:37;1.45;;;1.35;;
28836;SDS011;50669;50.982;11.022;2023-04-06T07:17:03;1.70;;;1.33;;
28836;SDS011;50669;50.982;11.022;2023-04-06T07:19:29;1.63;;;1.00;;
28836;SDS011;50669;50.982;11.022;2023-04-06T07:21:54;1.77;;;1.27;;
28836;SDS011;50669;50.982;11.022;2023-04-06T07:24:23;2.72;;;1.75;;
28836;SDS011;50669;50.982;11.022;2023-04-06T07:26:49;1.65;;;1.35;;
28836;SDS011;50669;50.982;11.022;2023-04-06T07:29:17;1.73;;;1.50;;
28836;SDS011;50669;50.982;11.022;2023-04-06T07:31:45;1.88;;;1.40;;
28836;SDS011;50669;50.982;11.022;2023-04-06T07:34:11;1.40;;;1.30;;
28836;SDS011;50669;50.982;11.022;2023-04-06T07:36:36;1.67;;;1.27;;
28836;SDS011;50669;50.982;11.022;2023-04-06T07:39:02;2.15;;;1.60;;
28836;SDS011;50669;50.982;11.022;2023-04-06T07:41:28;2.38;;;1.90;;
28836;SDS011;50669;50.982;11.022;2023-04-06T07:43:53;1.88;;;1.38;;
28836;SDS011;50669;50.982;11.022;2023-04-06T07:46:21;1.50;;;1.30;;
28836;SDS011;50669;50.982;11.022;2023-04-06T07:48:47;2.08;;;1.40;;
28836;SDS011;50669;50.982;11.022;2023-04-06T07:51:12;1.90;;;1.63;;
28836;SDS011;50669;50.982;11.022;2023-04-06T07:53:39;2.33;;;1.80;;
28836;SDS011;50669;50.982;11.022;2023-04-06T07:56:05;3.28;;;1.52;;
28836;SDS011;50669;50.982;11.022;2023-04-06T07:58:33;1.90;;;1.50;;
28836;SDS011;50669;50.982;11.022;2023-04-06T08:00:59;2.38;;;1.75;;
28836;SDS011;50669;50.982;11.022;2023-04-06T08:03:28;1.85;;;1.50;;
28836;SDS011;50669;50.982;11.022;2023-04-06T08:05:54;1.60;;;1.42;;
28836;SDS011;50669;50.982;11.022;2023-04-06T08:08:21;2.75;;;1.73;;
28836;SDS011;50669;50.982;11.022;2023-04-06T08:10:47;1.90;;;1.58;;
28836;SDS011;50669;50.982;11.022;2023-04-06T08:13:16;1.80;;;1.55;;
28836;SDS011;50669;50.982;11.022;2023-04-06T08:15:42;3.65;;;1.75;;
28836;SDS011;50669;50.982;11.022;2023-04-06T08:18:08;2.00;;;1.40;;
28836;SDS011;50669;50.982;11.022;2023-04-06T08:20:34;2.85;;;1.88;;
28836;SDS011;50669;50.982;11.022;2023-04-06T08:23:00;1.92;;;1.40;;
28836;SDS011;50669;50.982;11.022;2023-04-06T08:25:29;1.65;;;1.40;;
28836;SDS011;50669;50.982;11.022;2023-04-06T08:27:55;3.50;;;1.63;;
28836;SDS011;50669;50.982;11.022;2023-04-06T08:30:23;2.83;;;1.75;;
28836;SDS011;50669;50.982;11.022;2023-04-06T08:32:48;2.50;;;1.40;;
28836;SDS011;50669;50.982;11.022;2023-04-06T08:35:14;2.00;;;1.63;;
28836;SDS011;50669;50.982;11.022;2023-04-06T08:37:40;2.42;;;1.73;;
28836;SDS011;50669;50.982;11.022;2023-04-06T08:40:06;3.45;;;1.85;;
28836;SDS011;50669;50.982;11.022;2023-04-06T08:42:32;2.00;;;1.80;;
28836;SDS011;50669;50.982;11.022;2023-04-06T08:45:02;3.08;;;1.80;;
28836;SDS011;50669;50.982;11.022;2023-04-06T08:47:28;2.30;;;1.60;;
28836;SDS011;50669;50.982;11.022;2023-04-06T08:49:54;2.00;;;1.70;;
28836;SDS011;50669;50.982;11.022;2023-04-06T08:52:21;3.10;;;2.00;;
28836;SDS011;50669;50.982;11.022;2023-04-06T08:54:48;3.00;;;1.83;;
28836;SDS011;50669;50.982;11.022;2023-04-06T08:57:14;3.25;;;2.08;;
28836;SDS011;50669;50.982;11.022;2023-04-06T08:59:41;3.08;;;1.77;;
28836;SDS011;50669;50.982;11.022;2023-04-06T09:02:07;2.38;;;1.90;;
28836;SDS011;50669;50.982;11.022;2023-04-06T09:07:06;2.72;;;1.98;;
28836;SDS011;50669;50.982;11.022;2023-04-06T09:09:32;2.60;;;1.90;;
28836;SDS011;50669;50.982;11.022;2023-04-06T09:11:58;3.60;;;1.77;;
28836;SDS011;50669;50.982;11.022;2023-04-06T09:14:34;2.80;;;2.25;;
28836;SDS011;50669;50.982;11.022;2023-04-06T09:17:04;2.42;;;1.67;;
28836;SDS011;50669;50.982;11.022;2023-04-06T09:19:30;3.55;;;2.38;;
28836;SDS011;50669;50.982;11.022;2023-04-06T09:22:05;4.32;;;2.17;;
28836;SDS011;50669;50.982;11.022;2023-04-06T09:24:47;3.13;;;1.80;;
28836;SDS011;50669;50.982;11.022;2023-04-06T09:27:14;3.30;;;1.95;;
28836;SDS011;50669;50.982;11.022;2023-04-06T09:29:41;3.55;;;1.77;;
28836;SDS011;50669;50.982;11.022;2023-04-06T09:32:08;3.22;;;2.13;;
28836;SDS011;50669;50.982;11.022;2023-04-06T09:34:36;2.10;;;1.90;;
28836;SDS011;50669;50.982;11.022;2023-04-06T09:37:15;3.63;;;2.08;;
28836;SDS011;50669;50.982;11.022;2023-04-06T09:39:42;2.42;;;1.75;;
28836;SDS011;50669;50.982;11.022;2023-04-06T09:42:09;3.15;;;1.92;;
28836;SDS011;50669;50.982;11.022;2023-04-06T09:44:48;2.38;;;1.80;;
28836;SDS011;50669;50.982;11.022;2023-04-06T09:47:13;2.00;;;1.80;;
28836;SDS011;50669;50.982;11.022;2023-04-06T09:49:44;3.25;;;2.10;;
28836;SDS011;50669;50.982;11.022;2023-04-06T09:52:11;2.55;;;1.83;;
28836;SDS011;50669;50.982;11.022;2023-04-06T09:54:37;2.20;;;2.00;;
28836;SDS011;50669;50.982;11.022;2023-04-06T10:00:05;3.15;;;2.00;;
28836;SDS011;50669;50.982;11.022;2023-04-06T10:08:23;2.28;;;1.65;;
28836;SDS011;50669;50.982;11.022;2023-04-06T10:10:53;3.03;;;2.10;;
28836;SDS011;50669;50.982;11.022;2023-04-06T10:13:19;2.70;;;2.05;;
28836;SDS011;50669;50.982;11.022;2023-04-06T10:15:45;3.38;;;2.00;;
28836;SDS011;50669;50.982;11.022;2023-04-06T10:18:12;2.17;;;1.73;;
28836;SDS011;50669;50.982;11.022;2023-04-06T10:23:35;2.95;;;2.05;;
28836;SDS011;50669;50.982;11.022;2023-04-06T10:26:13;3.08;;;1.85;;
28836;SDS011;50669;50.982;11.022;2023-04-06T10:28:43;2.65;;;1.80;;
28836;SDS011;50669;50.982;11.022;2023-04-06T10:31:10;3.13;;;1.70;;
28836;SDS011;50669;50.982;11.022;2023-04-06T10:33:36;2.80;;;1.95;;
28836;SDS011;50669;50.982;11.022;2023-04-06T10:36:15;4.38;;;2.17;;
28836;SDS011;50669;50.982;11.022;2023-04-06T10:38:53;2.58;;;1.90;;
28836;SDS011;50669;50.982;11.022;2023-04-06T10:41:34;2.20;;;1.70;;
28836;SDS011;50669;50.982;11.022;2023-04-06T10:44:05;2.78;;;1.98;;
28836;SDS011;50669;50.982;11.022;2023-04-06T10:46:33;2.17;;;1.95;;
28836;SDS011;50669;50.982;11.022;2023-04-06T10:49:11;2.63;;;1.70;;
28836;SDS011;50669;50.982;11.022;2023-04-06T10:51:40;2.20;;;1.80;;
28836;SDS011;50669;50.982;11.022;2023-04-06T10:54:08;2.45;;;1.75;;
28836;SDS011;50669;50.982;11.022;2023-04-06T10:56:36;3.13;;;2.30;;
28836;SDS011;50669;50.982;11.022;2023-04-06T10:59:03;2.65;;;2.05;;
28836;SDS011;50669;50.982;11.022;2023-04-06T11:01:30;2.95;;;2.10;;
28836;SDS011;50669;50.982;11.022;2023-04-06T11:04:01;2.15;;;1.88;;
28836;SDS011;50669;50.982;11.022;2023-04-06T11:06:28;2.40;;;2.08;;
28836;SDS011;50669;50.982;11.022;2023-04-06T11:08:56;2.45;;;1.75;;
28836;SDS011;50669;50.982;11.022;2023-04-06T11:11:24;2.38;;;2.00;;
28836;SDS011;50669;50.982;11.022;2023-04-06T11:13:52;2.22;;;1.95;;
28836;SDS011;50669;50.982;11.022;2023-04-06T11:16:26;2.38;;;1.65;;
28836;SDS011;50669;50.982;11.022;2023-04-06T11:26:57;2.38;;;1.80;;
28836;SDS011;50669;50.982;11.022;2023-04-06T11:31:53;2.70;;;2.15;;
28836;SDS011;50669;50.982;11.022;2023-04-06T11:34:23;2.55;;;1.90;;
28836;SDS011;50669;50.982;11.022;2023-04-06T11:36:57;2.55;;;2.28;;
28836;SDS011;50669;50.982;11.022;2023-04-06T11:39:27;2.53;;;1.88;;
28836;SDS011;50669;50.982;11.022;2023-04-06T11:41:56;2.95;;;1.98;;
28836;SDS011;50669;50.982;11.022;2023-04-06T11:44:36;2.17;;;1.95;;
28836;SDS011;50669;50.982;11.022;2023-04-06T11:47:16;2.38;;;1.75;;
28836;SDS011;50669;50.982;11.022;2023-04-06T11:49:44;2.95;;;1.95;;
28836;SDS011;50669;50.982;11.022;2023-04-06T11:52:14;3.03;;;1.70;;
28836;SDS011;50669;50.982;11.022;2023-04-06T11:54:44;2.50;;;2.05;;
28836;SDS011;50669;50.982;11.022;2023-04-06T11:57:11;3.92;;;2.17;;
28836;SDS011;50669;50.982;11.022;2023-04-06T11:59:39;2.45;;;1.83;;
28836;SDS011;50669;50.982;11.022;2023-04-06T12:02:08;2.83;;;1.90;;
28836;SDS011;50669;50.982;11.022;2023-04-06T12:04:34;2.75;;;1.80;;
28836;SDS011;50669;50.982;11.022;2023-04-06T12:07:02;2.58;;;2.08;;
28836;SDS011;50669;50.982;11.022;2023-04-06T12:09:29;2.35;;;1.92;;
28836;SDS011;50669;50.982;11.022;2023-04-06T12:11:55;3.15;;;1.95;;
28836;SDS011;50669;50.982;11.022;2023-04-06T12:14:21;2.63;;;1.88;;
28836;SDS011;50669;50.982;11.022;2023-04-06T12:16:47;2.58;;;1.90;;
28836;SDS011;50669;50.982;11.022;2023-04-06T12:19:13;1.75;;;1.65;;
28836;SDS011;50669;50.982;11.022;2023-04-06T12:21:39;2.63;;;2.22;;
28836;SDS011;50669;50.982;11.022;2023-04-06T12:24:05;2.35;;;2.00;;
28836;SDS011;50669;50.982;11.022;2023-04-06T12:26:31;2.50;;;1.90;;
28836;SDS011;50669;50.982;11.022;2023-04-06T12:29:00;2.60;;;1.95;;
28836;SDS011;50669;50.982;11.022;2023-04-06T12:31:34;2.08;;;1.73;;
28836;SDS011;50669;50.982;11.022;2023-04-06T12:34:00;3.35;;;2.15;;
28836;SDS011;50669;50.982;11.022;2023-04-06T12:36:28;3.08;;;2.10;;
28836;SDS011;50669;50.982;11.022;2023-04-06T12:38:53;2.92;;;1.90;;
28836;SDS011;50669;50.982;11.022;2023-04-06T12:41:22;1.85;;;1.55;;
28836;SDS011;50669;50.982;11.022;2023-04-06T12:43:48;2.10;;;1.63;;
28836;SDS011;50669;50.982;11.022;2023-04-06T12:46:17;2.97;;;2.22;;
28836;SDS011;50669;50.982;11.022;2023-04-06T12:48:45;2.28;;;1.70;;
28836;SDS011;50669;50.982;11.022;2023-04-06T12:51:11;2.25;;;1.80;;
28836;SDS011;50669;50.982;11.022;2023-04-06T12:53:37;2.42;;;1.80;;
28836;SDS011;50669;50.982;11.022;2023-04-06T12:56:10;2.10;;;1.75;;
28836;SDS011;50669;50.982;11.022;2023-04-06T12:58:40;2.30;;;1.80;;
28836;SDS011;50669;50.982;11.022;2023-04-06T13:01:06;1.60;;;1.50;;
28836;SDS011;50669;50.982;11.022;2023-04-06T13:03:35;1.90;;;1.70;;
28836;SDS011;50669;50.982;11.022;2023-04-06T13:06:01;2.58;;;1.83;;
28836;SDS011;50669;50.982;11.022;2023-04-06T13:08:29;2.17;;;1.63;;
28836;SDS011;50669;50.982;11.022;2023-04-06T13:10:57;2.13;;;1.70;;
28836;SDS011;50669;50.982;11.022;2023-04-06T13:13:26;2.40;;;1.67;;
28836;SDS011;50669;50.982;11.022;2023-04-06T13:15:54;2.25;;;1.65;;
28836;SDS011;50669;50.982;11.022;2023-04-06T13:18:24;3.15;;;1.83;;
28836;SDS011;50669;50.982;11.022;2023-04-06T13:20:51;2.08;;;1.73;;
28836;SDS011;50669;50.982;11.022;2023-04-06T13:23:17;2.25;;;1.40;;
28836;SDS011;50669;50.982;11.022;2023-04-06T13:25:43;1.92;;;1.75;;
28836;SDS011;50669;50.982;11.022;2023-04-06T13:28:09;2.45;;;1.85;;
28836;SDS011;50669;50.982;11.022;2023-04-06T13:30:35;2.50;;;1.67;;
28836;SDS011;50669;50.982;11.022;2023-04-06T13:33:06;2.58;;;1.98;;
28836;SDS011;50669;50.982;11.022;2023-04-06T13:35:32;2.15;;;1.50;;
28836;SDS011;50669;50.982;11.022;2023-04-06T13:38:00;2.00;;;1.80;;
28836;SDS011;50669;50.982;11.022;2023-04-06T13:40:26;2.67;;;1.83;;
28836;SDS011;50669;50.982;11.022;2023-04-06T13:42:51;2.28;;;1.52;;
28836;SDS011;50669;50.982;11.022;2023-04-06T13:45:17;3.13;;;1.95;;
28836;SDS011;50669;50.982;11.022;2023-04-06T13:47:45;1.75;;;1.65;;
28836;SDS011;50669;50.982;11.022;2023-04-06T13:50:11;2.28;;;1.92;;
28836;SDS011;50669;50.982;11.022;2023-04-06T13:52:37;2.42;;;2.08;;
28836;SDS011;50669;50.982;11.022;2023-04-06T13:55:02;1.67;;;1.30;;
28836;SDS011;50669;50.982;11.022;2023-04-06T13:57:28;2.20;;;1.63;;
28836;SDS011;50669;50.982;11.022;2023-04-06T13:59:55;2.80;;;1.80;;
28836;SDS011;50669;50.982;11.022;2023-04-06T14:02:20;2.60;;;1.60;;
28836;SDS011;50669;50.982;11.022;2023-04-06T14:04:51;2.00;;;1.33;;
28836;SDS011;50669;50.982;11.022;2023-04-06T14:07:18;1.80;;;1.52;;
28836;SDS011;50669;50.982;11.022;2023-04-06T14:09:44;2.35;;;1.50;;
28836;SDS011;50669;50.982;11.022;2023-04-06T14:12:12;2.35;;;1.50;;
28836;SDS011;50669;50.982;11.022;2023-04-06T14:14:38;2.13;;;1.40;;
28836;SDS011;50669;50.982;11.022;2023-04-06T14:17:06;3.17;;;1.60;;
28836;SDS011;50669;50.982;11.022;2023-04-06T14:19:32;2.20;;;1.55;;
28836;SDS011;50669;50.982;11.022;2023-04-06T14:21:59;2.20;;;1.70;;
28836;SDS011;50669;50.982;11.022;2023-04-06T14:24:25;1.40;;;1.30;;
28836;SDS011;50669;50.982;11.022;2023-04-06T14:26:52;2.20;;;1.70;;
28836;SDS011;50669;50.982;11.022;2023-04-06T14:29:21;1.75;;;1.23;;
28836;SDS011;50669;50.982;11.022;2023-04-06T14:31:47;2.00;;;1.77;;
28836;SDS011;50669;50.982;11.022;2023-04-06T14:34:13;1.83;;;1.65;;
28836;SDS011;50669;50.982;11.022;2023-04-06T14:36:42;1.58;;;1.42;;
28836;SDS011;50669;50.982;11.022;2023-04-06T14:39:08;2.42;;;1.42;;
28836;SDS011;50669;50.982;11.022;2023-04-06T14:41:37;2.25;;;1.70;;
28836;SDS011;50669;50.982;11.022;2023-04-06T14:44:05;2.17;;;1.60;;
28836;SDS011;50669;50.982;11.022;2023-04-06T14:46:37;1.65;;;1.38;;
28836;SDS011;50669;50.982;11.022;2023-04-06T14:49:03;2.45;;;1.70;;
28836;SDS011;50669;50.982;11.022;2023-04-06T14:51:33;1.90;;;1.50;;
28836;SDS011;50669;50.982;11.022;2023-04-06T14:54:00;2.15;;;1.30;;
28836;SDS011;50669;50.982;11.022;2023-04-06T14:56:28;2.20;;;1.55;;
28836;SDS011;50669;50.982;11.022;2023-04-06T14:58:59;2.25;;;1.60;;